Terminal Aerodrome Forecast
Issued by NWS Kansas City/Pleasant Hill, MO

Home | Current Version | Previous Version | Text Only | Print | Product List | Glossary On
Versions: 1 2 3 4 5 6 7 8 9 10 11 12 13 14 15 16
000
FTUS43 KEAX 140500
TAFMCI
TAF
KMCI 140520Z 1406/1506 24005KT P6SM SCT250
     FM141500 33008KT P6SM VCTS BKN050CB
      TEMPO 1415/1419 4SM -TSRA BKN025CB
     FM142000 34013G20KT P6SM SCT060
     FM150000 35008KT P6SM SKC=

USA.gov is the U.S. government's official web portal to all federal, state and local government web resources and services.